Terminal Aerodrome Forecast
Issued by NWS

Home | Current Version | Previous Version | Text Only | Print | Product List | Glossary On
Versions: 1 2 3 4 5 6 7 8 9 10 11 12 13 14
000
FTUS45 KGJT 171120
TAFRIL
TAF
KRIL 171120Z 1712/1812 20003KT P6SM SKC
     FM171800 27007KT P6SM SCT200
     FM180200 16004KT P6SM SCT200
     FM180700 18005KT P6SM SKC=

USA.gov is the U.S. government's official web portal to all federal, state and local government web resources and services.